Time;durP1;ratioP1;P1;durP2;ratioP2;P2;SDS_P1;SDS_P2;PMS_P1;PMS_P2;Temp;Humidity;BMP_temperature;BMP_pressure;BME280_temperature;BME280_humidity;BME280_pressure;Samples;Min_cycle;Max_cycle;Signal;HPM_P1;HPM_P2
2024/03/01 00:00:18;;;;;;;27.95;11.73;;;6.00;99.90;;;;;;5035057;28;20053;-77
2024/03/01 00:02:44;;;;;;;21.67;10.60;;;5.90;99.90;;;;;;5037064;28;20503;-77
2024/03/01 00:05:10;;;;;;;25.65;11.68;;;6.00;99.90;;;;;;5035848;28;20030;-76
2024/03/01 00:07:35;;;;;;;29.02;11.77;;;6.00;99.90;;;;;;5036227;28;20029;-77
2024/03/01 00:10:01;;;;;;;20.02;9.50;;;6.00;99.90;;;;;;5036079;28;20705;-78
2024/03/01 00:12:26;;;;;;;19.10;10.57;;;6.00;99.90;;;;;;5034186;28;20112;-77
2024/03/01 00:14:52;;;;;;;21.52;11.18;;;6.10;99.90;;;;;;5036128;28;20439;-77
2024/03/01 00:17:18;;;;;;;18.92;10.65;;;6.00;99.90;;;;;;5036361;28;20022;-77
2024/03/01 00:19:44;;;;;;;21.25;11.70;;;6.00;99.90;;;;;;5035865;28;20018;-78
2024/03/01 00:22:09;;;;;;;22.98;12.25;;;6.00;99.90;;;;;;5034011;28;20030;-77
2024/03/01 00:24:35;;;;;;;23.52;11.85;;;6.00;99.90;;;;;;5036188;28;20025;-76
2024/03/01 00:27:01;;;;;;;25.67;12.60;;;5.90;99.90;;;;;;5035786;28;20029;-79
2024/03/01 00:29:26;;;;;;;25.83;11.38;;;5.90;99.90;;;;;;5036296;28;20021;-79
2024/03/01 00:31:52;;;;;;;22.85;10.25;;;5.90;99.90;;;;;;5034304;28;20059;-77
2024/03/01 00:34:17;;;;;;;21.17;11.07;;;5.80;99.90;;;;;;5035752;28;20025;-77
2024/03/01 00:36:43;;;;;;;18.85;9.45;;;5.80;99.90;;;;;;5036010;28;20028;-76
2024/03/01 00:39:09;;;;;;;22.52;9.23;;;5.80;99.90;;;;;;5036056;28;20022;-77
2024/03/01 00:41:34;;;;;;;20.45;10.70;;;5.80;99.90;;;;;;5033962;28;20040;-77
2024/03/01 00:44:01;;;;;;;20.83;9.13;;;5.80;99.90;;;;;;5035626;28;20459;-76
2024/03/01 00:46:27;;;;;;;19.13;9.80;;;5.80;99.90;;;;;;5034439;28;20095;-77
2024/03/01 00:48:54;;;;;;;18.80;10.32;;;5.70;99.90;;;;;;5036797;28;20069;-77
2024/03/01 00:51:20;;;;;;;23.65;10.20;;;5.70;99.90;;;;;;5034878;28;20026;-77
2024/03/01 00:53:46;;;;;;;16.00;8.85;;;5.70;99.90;;;;;;5036201;28;20495;-77
2024/03/01 00:56:12;;;;;;;16.63;9.20;;;5.70;99.90;;;;;;5035477;28;20060;-77
2024/03/01 00:58:37;;;;;;;19.98;9.98;;;5.60;99.90;;;;;;5035475;28;20498;-77
2024/03/01 01:01:03;;;;;;;18.20;8.68;;;5.60;99.90;;;;;;5035304;28;20080;-77
2024/03/01 01:03:29;;;;;;;22.58;10.13;;;5.60;99.90;;;;;;5035574;28;20128;-77
2024/03/01 01:05:55;;;;;;;18.38;10.93;;;5.50;99.90;;;;;;5035212;28;20039;-77
2024/03/01 01:08:21;;;;;;;17.88;9.82;;;5.60;99.90;;;;;;5035216;28;20093;-77
2024/03/01 01:10:47;;;;;;;19.58;11.50;;;5.70;99.90;;;;;;5034123;28;20029;-77
2024/03/01 01:13:12;;;;;;;25.00;13.45;;;5.70;99.90;;;;;;5035215;28;20039;-77
2024/03/01 01:15:38;;;;;;;19.88;10.52;;;5.60;99.90;;;;;;5031150;28;20100;-77
2024/03/01 01:18:04;;;;;;;20.90;10.57;;;5.60;99.90;;;;;;5030542;28;20040;-77
2024/03/01 01:20:29;;;;;;;24.35;10.00;;;5.60;99.90;;;;;;5031566;28;20100;-78
2024/03/01 01:22:55;;;;;;;28.98;13.00;;;5.60;99.90;;;;;;5035358;28;20085;-77
2024/03/01 01:25:21;;;;;;;17.83;10.27;;;5.50;99.90;;;;;;5031051;28;20030;-77
2024/03/01 01:27:46;;;;;;;20.35;10.38;;;5.50;99.90;;;;;;5031750;28;20025;-77
2024/03/01 01:30:12;;;;;;;22.60;11.15;;;5.50;99.90;;;;;;5035695;28;20036;-77
2024/03/01 01:32:38;;;;;;;20.40;9.93;;;5.50;99.90;;;;;;5032937;28;20029;-77
2024/03/01 01:35:05;;;;;;;17.23;9.85;;;5.50;99.90;;;;;;5033604;28;20108;-77
2024/03/01 01:37:30;;;;;;;22.30;10.18;;;5.50;99.90;;;;;;5032327;28;20502;-77
2024/03/01 01:39:57;;;;;;;22.73;11.15;;;5.50;99.90;;;;;;5032868;28;20022;-78
2024/03/01 01:42:22;;;;;;;14.55;9.05;;;5.40;99.90;;;;;;5035024;28;20044;-77
2024/03/01 01:44:48;;;;;;;18.02;10.48;;;5.40;99.90;;;;;;5034077;28;20026;-77
2024/03/01 01:47:14;;;;;;;18.10;9.05;;;5.40;99.90;;;;;;5034716;28;20029;-78
2024/03/01 01:49:40;;;;;;;21.35;10.55;;;5.40;99.90;;;;;;5034770;28;20100;-78
2024/03/01 01:52:07;;;;;;;16.92;8.82;;;5.40;99.90;;;;;;5035357;28;20045;-77
2024/03/01 01:54:33;;;;;;;17.95;9.82;;;5.30;99.90;;;;;;5038936;28;20025;-78
2024/03/01 01:56:59;;;;;;;22.73;10.45;;;5.30;99.90;;;;;;5039196;28;20076;-78
2024/03/01 01:59:25;;;;;;;17.25;9.43;;;5.30;99.90;;;;;;5037692;28;20026;-78
2024/03/01 02:01:51;;;;;;;22.08;10.20;;;5.30;99.90;;;;;;5037744;28;20128;-78
2024/03/01 02:04:18;;;;;;;17.65;11.02;;;5.30;99.90;;;;;;5039361;28;20041;-78
2024/03/01 02:06:44;;;;;;;18.40;10.18;;;5.30;99.90;;;;;;5039299;28;20440;-78
2024/03/01 02:09:17;;;;;;;23.77;10.32;;;5.30;99.90;;;;;;5037777;28;20108;-77
2024/03/01 02:11:44;;;;;;;24.20;10.70;;;5.30;99.90;;;;;;5038869;28;20021;-78
2024/03/01 02:14:09;;;;;;;16.52;8.80;;;5.30;99.90;;;;;;5038837;28;20075;-78
2024/03/01 02:16:36;;;;;;;22.00;12.07;;;5.30;99.90;;;;;;5038830;28;20029;-77
2024/03/01 02:19:04;;;;;;;21.85;10.55;;;5.30;99.90;;;;;;5037232;28;20064;-77
2024/03/01 02:21:35;;;;;;;21.27;10.70;;;5.40;99.90;;;;;;5038444;28;20136;-77
2024/03/01 02:24:01;;;;;;;19.27;9.93;;;5.30;99.90;;;;;;5038429;28;20494;-77
2024/03/01 02:26:26;;;;;;;19.40;10.80;;;5.30;99.90;;;;;;5038295;28;20025;-76
2024/03/01 02:28:52;;;;;;;19.17;10.25;;;5.30;99.90;;;;;;5038672;28;20051;-77
2024/03/01 02:31:18;;;;;;;20.52;10.95;;;5.40;99.90;;;;;;5036697;28;20049;-77
2024/03/01 02:33:43;;;;;;;22.02;10.52;;;5.50;99.90;;;;;;5036692;28;20376;-77
2024/03/01 02:36:09;;;;;;;22.42;10.10;;;5.50;99.90;;;;;;5037849;28;20033;-77
2024/03/01 02:38:35;;;;;;;22.20;10.70;;;5.50;99.90;;;;;;5037559;28;20028;-77
2024/03/01 02:41:00;;;;;;;19.63;10.27;;;5.50;99.90;;;;;;5036360;28;20028;-78
2024/03/01 02:43:26;;;;;;;18.90;10.90;;;5.60;99.90;;;;;;5037905;28;20032;-76
2024/03/01 02:45:52;;;;;;;17.25;9.60;;;5.60;99.90;;;;;;5037155;28;20029;-77
2024/03/01 02:48:18;;;;;;;21.20;10.38;;;5.50;99.90;;;;;;5036758;28;20037;-77
2024/03/01 02:50:43;;;;;;;22.17;10.60;;;5.60;99.90;;;;;;5035398;28;20037;-77
2024/03/01 02:53:09;;;;;;;24.45;11.75;;;5.60;99.90;;;;;;5036263;28;20026;-77
2024/03/01 02:55:35;;;;;;;25.20;11.63;;;5.50;99.90;;;;;;5037297;28;20057;-77
2024/03/01 02:58:01;;;;;;;20.40;11.55;;;5.60;99.90;;;;;;5036971;28;20056;-77
2024/03/01 03:00:27;;;;;;;21.73;10.68;;;5.60;99.90;;;;;;5045980;28;20021;-76
2024/03/01 03:02:53;;;;;;;17.17;10.88;;;5.70;99.90;;;;;;5057099;28;20024;-77
2024/03/01 03:05:18;;;;;;;24.52;11.55;;;5.70;99.90;;;;;;5055712;28;20399;-77
2024/03/01 03:07:46;;;;;;;26.73;13.55;;;5.80;99.90;;;;;;5055686;28;20675;-78
2024/03/01 03:10:12;;;;;;;20.10;11.27;;;5.80;99.90;;;;;;5056809;28;20025;-77
2024/03/01 03:12:38;;;;;;;25.35;10.88;;;5.80;99.90;;;;;;5056293;28;20541;-77
2024/03/01 03:15:08;;;;;;;25.40;11.65;;;5.90;99.90;;;;;;5057636;28;20127;-77
2024/03/01 03:17:34;;;;;;;19.52;10.73;;;5.90;99.90;;;;;;5057557;28;20024;-76
2024/03/01 03:20:09;;;;;;;25.40;11.63;;;6.00;99.90;;;;;;5057648;28;20032;-77
2024/03/01 03:22:36;;;;;;;23.17;12.10;;;6.10;99.90;;;;;;5055665;28;20108;-76
2024/03/01 03:25:02;;;;;;;20.77;10.20;;;6.10;99.90;;;;;;5068564;28;20043;-77
2024/03/01 03:27:28;;;;;;;23.42;11.45;;;6.20;99.90;;;;;;5071089;28;20044;-76
2024/03/01 03:29:53;;;;;;;21.30;11.13;;;6.20;99.90;;;;;;5069264;28;20029;-77
2024/03/01 03:32:21;;;;;;;26.20;11.25;;;6.20;99.90;;;;;;5058372;28;20056;-77
2024/03/01 03:34:47;;;;;;;24.63;12.45;;;6.20;99.90;;;;;;5057933;28;20479;-79
2024/03/01 03:37:13;;;;;;;19.50;10.18;;;6.30;99.90;;;;;;5056693;28;20070;-77
2024/03/01 03:39:38;;;;;;;19.80;11.52;;;6.30;99.90;;;;;;5057838;28;20493;-77
2024/03/01 03:42:04;;;;;;;21.65;11.18;;;6.30;99.90;;;;;;5057026;28;20084;-77
2024/03/01 03:44:30;;;;;;;23.52;13.07;;;6.20;99.90;;;;;;5055565;28;20111;-77
2024/03/01 03:46:55;;;;;;;19.48;10.88;;;6.20;99.90;;;;;;5054982;28;20041;-77
2024/03/01 03:49:21;;;;;;;25.05;11.15;;;6.20;99.90;;;;;;5055025;28;20079;-77
2024/03/01 03:51:46;;;;;;;24.85;10.70;;;6.10;99.90;;;;;;5054892;28;20025;-77
2024/03/01 03:54:15;;;;;;;27.65;11.98;;;6.10;99.90;;;;;;5055951;28;20445;-78
2024/03/01 03:56:42;;;;;;;26.67;12.10;;;6.20;99.90;;;;;;5054863;28;20372;-77
2024/03/01 03:59:07;;;;;;;22.55;12.18;;;6.20;99.90;;;;;;5054633;28;20131;-78
2024/03/01 04:01:33;;;;;;;23.77;13.00;;;6.30;99.90;;;;;;5055730;28;20089;-77
2024/03/01 04:03:59;;;;;;;22.27;12.80;;;6.30;99.90;;;;;;5055997;28;20427;-77
2024/03/01 04:06:24;;;;;;;26.48;14.35;;;6.30;99.90;;;;;;5055258;28;20059;-77
2024/03/01 04:08:50;;;;;;;19.95;11.68;;;6.30;99.90;;;;;;5054985;28;20487;-76
2024/03/01 04:11:16;;;;;;;28.05;13.27;;;6.30;99.90;;;;;;5054514;28;20021;-77
2024/03/01 04:13:41;;;;;;;23.63;12.10;;;6.20;99.90;;;;;;5053364;28;20040;-78
2024/03/01 04:16:07;;;;;;;28.50;12.73;;;6.30;99.90;;;;;;5035621;28;20022;-77
2024/03/01 04:18:33;;;;;;;22.05;11.18;;;6.30;99.90;;;;;;5034762;28;20071;-77
2024/03/01 04:20:59;;;;;;;27.10;13.38;;;6.30;99.90;;;;;;5033807;28;20022;-77
2024/03/01 04:23:26;;;;;;;23.95;13.20;;;6.20;99.90;;;;;;5033783;28;20068;-77
2024/03/01 04:25:53;;;;;;;30.52;12.55;;;6.30;99.90;;;;;;5034837;28;20027;-78
2024/03/01 04:28:19;;;;;;;25.40;12.23;;;6.20;99.90;;;;;;5033476;28;20022;-77
2024/03/01 04:30:45;;;;;;;23.25;12.02;;;6.30;99.90;;;;;;5034904;28;20025;-77
2024/03/01 04:33:11;;;;;;;27.67;12.63;;;6.20;99.90;;;;;;5035181;28;20476;-77
2024/03/01 04:35:37;;;;;;;24.33;12.18;;;6.30;99.90;;;;;;5035297;28;20052;-77
2024/03/01 04:38:03;;;;;;;21.27;12.13;;;6.30;99.90;;;;;;5034917;28;20014;-77
2024/03/01 04:40:29;;;;;;;22.75;11.85;;;6.30;99.90;;;;;;5034181;28;20028;-77
2024/03/01 04:42:55;;;;;;;26.65;13.13;;;6.40;99.90;;;;;;5035280;28;20092;-79
2024/03/01 04:45:21;;;;;;;28.50;13.52;;;6.40;99.90;;;;;;5034142;28;20475;-77
2024/03/01 04:47:47;;;;;;;21.92;12.90;;;6.50;99.90;;;;;;5034419;28;20029;-76
2024/03/01 04:50:13;;;;;;;32.88;14.20;;;6.50;99.90;;;;;;5034438;28;20507;-77
2024/03/01 04:52:38;;;;;;;30.73;14.40;;;6.60;99.90;;;;;;5033663;28;20075;-77
2024/03/01 04:55:05;;;;;;;29.25;13.48;;;6.60;99.90;;;;;;5034141;28;20056;-77
2024/03/01 04:57:32;;;;;;;29.40;13.57;;;6.60;99.90;;;;;;5033991;28;20013;-77
2024/03/01 04:59:57;;;;;;;20.05;11.65;;;6.60;99.90;;;;;;5032648;28;20060;-77
2024/03/01 05:02:23;;;;;;;30.08;14.48;;;6.60;99.90;;;;;;5032549;28;20022;-77
2024/03/01 05:04:48;;;;;;;26.73;13.95;;;6.60;99.90;;;;;;5032437;28;20108;-76
2024/03/01 05:07:14;;;;;;;25.58;12.38;;;6.60;99.90;;;;;;5032819;28;20029;-76
2024/03/01 05:09:42;;;;;;;22.85;12.23;;;6.60;99.90;;;;;;5032728;28;20021;-78
2024/03/01 05:12:13;;;;;;;26.25;13.35;;;6.60;99.90;;;;;;5033759;28;20029;-77
2024/03/01 05:14:40;;;;;;;26.70;12.00;;;6.60;99.90;;;;;;5034052;28;20052;-76
2024/03/01 05:17:11;;;;;;;23.58;11.55;;;6.60;99.90;;;;;;5032608;28;20028;-77
2024/03/01 05:19:39;;;;;;;20.75;12.75;;;6.60;99.90;;;;;;5033928;28;20024;-76
2024/03/01 05:22:14;;;;;;;26.33;13.95;;;6.60;99.90;;;;;;5033665;28;20026;-75
2024/03/01 05:24:40;;;;;;;25.90;12.30;;;6.70;99.90;;;;;;5033646;28;20079;-77
2024/03/01 05:27:12;;;;;;;28.75;13.07;;;6.70;99.90;;;;;;5033402;28;20037;-77
2024/03/01 05:29:38;;;;;;;25.05;12.65;;;6.70;99.90;;;;;;5032797;28;20021;-76
2024/03/01 05:32:04;;;;;;;26.45;12.38;;;6.60;99.90;;;;;;5033776;28;20051;-77
2024/03/01 05:34:30;;;;;;;29.80;13.15;;;6.60;99.90;;;;;;5032574;28;20502;-76
2024/03/01 05:36:57;;;;;;;29.77;16.60;;;6.60;99.90;;;;;;5033852;28;20108;-76
2024/03/01 05:39:22;;;;;;;27.45;16.70;;;6.60;99.90;;;;;;5033624;28;20430;-77
2024/03/01 05:41:48;;;;;;;25.23;14.80;;;6.60;99.90;;;;;;5033486;28;20018;-76
2024/03/01 05:44:15;;;;;;;25.02;14.80;;;6.60;99.90;;;;;;5032870;28;20014;-76
2024/03/01 05:46:41;;;;;;;23.27;12.85;;;6.50;99.90;;;;;;5031808;28;20507;-75
2024/03/01 05:49:09;;;;;;;32.80;14.43;;;7.00;99.90;;;;;;5018841;28;20024;-77
2024/03/01 05:51:35;;;;;;;29.10;15.40;;;6.90;99.90;;;;;;5033922;28;20022;-78
2024/03/01 05:54:01;;;;;;;24.83;13.27;;;6.80;99.90;;;;;;5039005;28;20032;-76
2024/03/01 05:56:27;;;;;;;27.83;12.48;;;6.60;99.90;;;;;;5033812;28;20030;-75
2024/03/01 05:58:53;;;;;;;32.03;13.68;;;6.60;99.90;;;;;;5034406;28;20395;-76
2024/03/01 06:01:20;;;;;;;41.33;18.08;;;6.60;99.90;;;;;;5032939;28;20432;-77
2024/03/01 06:03:47;;;;;;;28.48;14.23;;;6.60;99.90;;;;;;5033403;28;20014;-78
2024/03/01 06:06:15;;;;;;;25.65;14.30;;;6.60;99.90;;;;;;5033689;28;20454;-78
2024/03/01 06:08:41;;;;;;;21.70;12.65;;;6.60;99.90;;;;;;5032318;28;20029;-77
2024/03/01 06:11:07;;;;;;;25.52;12.77;;;6.60;99.90;;;;;;5032943;28;20021;-76
2024/03/01 06:13:33;;;;;;;24.42;12.90;;;6.60;99.90;;;;;;5032877;28;20040;-75
2024/03/01 06:15:59;;;;;;;27.45;13.55;;;6.60;99.90;;;;;;5031028;28;20021;-76
2024/03/01 06:18:24;;;;;;;26.92;14.07;;;6.70;99.90;;;;;;5032817;28;20028;-76
2024/03/01 06:20:50;;;;;;;36.53;14.90;;;6.60;99.90;;;;;;5032572;28;20021;-76
2024/03/01 06:23:17;;;;;;;29.48;13.07;;;6.60;99.90;;;;;;5033028;28;20022;-76
2024/03/01 06:25:42;;;;;;;27.50;13.05;;;6.70;99.90;;;;;;5032649;28;20411;-77
2024/03/01 06:28:08;;;;;;;26.98;13.75;;;6.70;99.90;;;;;;5030224;28;20041;-77
2024/03/01 06:30:34;;;;;;;29.55;17.25;;;6.70;99.90;;;;;;5025889;28;20033;-76
2024/03/01 06:32:59;;;;;;;33.25;17.48;;;6.80;99.90;;;;;;5026987;28;20443;-76
2024/03/01 06:35:25;;;;;;;39.42;21.35;;;6.80;99.90;;;;;;5027318;28;20025;-78
2024/03/01 06:37:51;;;;;;;43.92;28.63;;;6.90;99.90;;;;;;5030763;28;20053;-78
2024/03/01 06:40:16;;;;;;;29.08;16.10;;;6.90;99.90;;;;;;5035772;28;20081;-76
2024/03/01 06:42:42;;;;;;;24.00;13.45;;;6.90;99.90;;;;;;5035342;28;20571;-76
2024/03/01 06:45:09;;;;;;;26.30;13.68;;;6.90;99.90;;;;;;5035302;28;20112;-76
2024/03/01 06:47:35;;;;;;;31.25;13.43;;;6.90;99.90;;;;;;5036323;28;20060;-78
2024/03/01 06:50:01;;;;;;;26.85;13.25;;;7.00;99.90;;;;;;5039951;28;20025;-77
2024/03/01 06:52:27;;;;;;;24.13;13.18;;;7.00;99.90;;;;;;5045982;28;20028;-78
2024/03/01 06:54:52;;;;;;;28.75;14.50;;;7.00;99.90;;;;;;5044879;28;20040;-76
2024/03/01 06:57:18;;;;;;;26.23;14.68;;;7.10;99.90;;;;;;5040713;28;20025;-75
2024/03/01 06:59:44;;;;;;;23.42;13.30;;;7.10;99.90;;;;;;5037497;28;20022;-77
2024/03/01 07:02:10;;;;;;;26.88;14.40;;;7.10;99.90;;;;;;5036950;28;20108;-76
2024/03/01 07:04:35;;;;;;;31.50;15.88;;;7.10;99.90;;;;;;5033537;28;20084;-77
2024/03/01 07:07:01;;;;;;;27.70;13.20;;;7.20;99.90;;;;;;5033287;28;20029;-76
2024/03/01 07:09:27;;;;;;;21.75;12.80;;;7.20;99.90;;;;;;5035082;28;20025;-76
2024/03/01 07:11:53;;;;;;;24.77;13.95;;;7.20;99.90;;;;;;5035199;28;20061;-76
2024/03/01 07:14:19;;;;;;;35.70;14.30;;;7.30;99.90;;;;;;5032944;28;20021;-76
2024/03/01 07:16:44;;;;;;;29.35;13.82;;;7.30;99.90;;;;;;5026701;28;20507;-76
2024/03/01 07:19:10;;;;;;;36.55;16.33;;;9.10;99.90;;;;;;5036478;28;20025;-78
2024/03/01 07:21:36;;;;;;;31.45;16.13;;;8.70;99.90;;;;;;5035007;28;20026;-77
2024/03/01 07:24:03;;;;;;;26.10;14.98;;;8.40;99.90;;;;;;5034306;28;20476;-76
2024/03/01 07:26:29;;;;;;;23.40;13.85;;;8.30;99.90;;;;;;5034133;28;20033;-77
2024/03/01 07:28:55;;;;;;;26.05;14.20;;;8.10;99.90;;;;;;5035149;28;20029;-76
2024/03/01 07:31:20;;;;;;;24.67;13.10;;;8.00;99.90;;;;;;5035945;28;20075;-75
2024/03/01 07:33:46;;;;;;;24.67;13.77;;;7.90;99.90;;;;;;5035701;28;20537;-74
2024/03/01 07:36:12;;;;;;;25.85;14.40;;;7.90;99.90;;;;;;5023253;28;21043;-75
2024/03/01 07:38:39;;;;;;;29.52;17.25;;;9.10;99.90;;;;;;5029986;28;20025;-75
2024/03/01 07:41:05;;;;;;;27.50;14.15;;;8.90;99.90;;;;;;5030688;28;20033;-75
2024/03/01 07:43:30;;;;;;;27.73;13.52;;;8.80;99.90;;;;;;5030673;28;20022;-75
2024/03/01 07:45:56;;;;;;;29.92;14.63;;;8.80;99.90;;;;;;5032327;28;20025;-75
2024/03/01 07:48:22;;;;;;;28.75;14.23;;;8.70;99.90;;;;;;5031000;28;20393;-73
2024/03/01 07:50:48;;;;;;;25.13;14.85;;;8.60;99.90;;;;;;5034626;28;20446;-76
2024/03/01 07:53:13;;;;;;;29.67;14.85;;;8.70;99.90;;;;;;5037593;28;20485;-75
2024/03/01 07:55:39;;;;;;;23.98;13.13;;;8.70;99.90;;;;;;5031031;28;20153;-75
2024/03/01 07:58:05;;;;;;;29.23;14.38;;;8.70;99.90;;;;;;5022791;28;20025;-75
2024/03/01 08:00:31;;;;;;;32.95;17.02;;;8.80;99.90;;;;;;5029524;28;20492;-76
2024/03/01 08:03:08;;;;;;;39.47;17.30;;;8.70;99.90;;;;;;5035214;28;20021;-74
2024/03/01 08:05:38;;;;;;;33.70;15.20;;;8.70;99.90;;;;;;5032923;28;20033;-75
2024/03/01 08:08:07;;;;;;;37.03;16.92;;;8.60;99.90;;;;;;5033815;28;20513;-75
2024/03/01 08:10:33;;;;;;;39.05;17.25;;;8.60;99.90;;;;;;5034843;28;20033;-74
2024/03/01 08:13:01;;;;;;;31.77;17.67;;;10.00;99.90;;;;;;5035387;28;20030;-75
2024/03/01 08:15:35;;;;;;;32.03;15.60;;;9.70;99.90;;;;;;5035533;28;20028;-77
2024/03/01 08:18:19;;;;;;;29.88;15.52;;;9.50;99.90;;;;;;5035734;28;20132;-76
2024/03/01 08:21:05;;;;;;;38.83;16.30;;;9.40;99.90;;;;;;5035385;28;20032;-76
2024/03/01 08:23:41;;;;;;;30.75;16.70;;;9.20;99.90;;;;;;5035111;28;20079;-77
2024/03/01 08:26:13;;;;;;;33.60;16.15;;;9.00;99.90;;;;;;5035529;28;20044;-76
2024/03/01 08:28:41;;;;;;;30.92;15.95;;;8.90;99.90;;;;;;5034320;28;20116;-76
2024/03/01 08:31:30;;;;;;;35.47;17.83;;;8.90;99.90;;;;;;5033874;28;20030;-77
2024/03/01 08:34:05;;;;;;;32.92;15.70;;;8.80;99.90;;;;;;5035696;28;20021;-76
2024/03/01 08:36:31;;;;;;;37.33;16.48;;;8.80;99.90;;;;;;5035590;28;20025;-76
2024/03/01 08:39:15;;;;;;;29.95;15.85;;;8.80;99.90;;;;;;5035342;28;20030;-77
2024/03/01 08:41:45;;;;;;;27.30;15.02;;;8.80;99.90;;;;;;5034644;28;20041;-76
2024/03/01 08:44:32;;;;;;;36.20;16.77;;;8.80;99.90;;;;;;5034716;28;20096;-76
2024/03/01 08:46:58;;;;;;;37.00;19.00;;;8.80;99.90;;;;;;5034207;28;20033;-76
2024/03/01 08:49:51;;;;;;;31.10;16.98;;;8.80;99.90;;;;;;5034327;28;20508;-78
2024/03/01 08:52:26;;;;;;;27.95;13.95;;;8.80;99.90;;;;;;5033966;28;20018;-77
2024/03/01 08:54:56;;;;;;;24.73;15.63;;;8.90;99.90;;;;;;5034039;28;20021;-77
2024/03/01 08:57:28;;;;;;;24.65;12.98;;;8.90;99.90;;;;;;5036120;28;20022;-78
2024/03/01 08:59:54;;;;;;;27.45;15.05;;;8.80;99.90;;;;;;5034781;28;20495;-78
2024/03/01 09:02:48;;;;;;;27.60;14.85;;;8.70;99.90;;;;;;5032942;28;20025;-77
2024/03/01 09:05:15;;;;;;;27.65;14.75;;;8.80;99.90;;;;;;5036236;28;20058;-77
2024/03/01 09:07:41;;;;;;;26.42;15.90;;;8.80;99.90;;;;;;5035865;28;20028;-78
2024/03/01 09:10:15;;;;;;;24.85;15.13;;;8.90;99.90;;;;;;5034359;28;20026;-76
2024/03/01 09:12:43;;;;;;;35.78;15.75;;;8.80;99.90;;;;;;5036404;28;20108;-77
2024/03/01 09:15:12;;;;;;;26.08;15.35;;;8.80;99.90;;;;;;5035264;28;20024;-77
2024/03/01 09:17:38;;;;;;;24.38;14.20;;;8.80;99.90;;;;;;5036516;28;20364;-78
2024/03/01 09:20:20;;;;;;;25.17;13.70;;;8.80;99.90;;;;;;5036588;28;20202;-77
2024/03/01 09:22:45;;;;;;;26.65;15.85;;;8.90;99.90;;;;;;5035095;28;20040;-78
2024/03/01 09:25:46;;;;;;;34.50;17.08;;;9.00;99.90;;;;;;5035584;28;20025;-76
2024/03/01 09:28:20;;;;;;;31.42;17.13;;;9.10;99.90;;;;;;5001881;28;20033;-77
2024/03/01 09:30:51;;;;;;;37.90;17.65;;;9.10;99.90;;;;;;5034578;28;20387;-77
2024/03/01 09:33:18;;;;;;;31.08;17.00;;;9.30;99.90;;;;;;5035895;28;20091;-77
2024/03/01 09:35:45;;;;;;;31.10;15.88;;;9.40;99.90;;;;;;5036654;28;20168;-76
2024/03/01 09:38:14;;;;;;;30.83;17.23;;;9.50;99.90;;;;;;5034796;28;20025;-77
2024/03/01 09:40:57;;;;;;;28.02;15.57;;;9.50;99.90;;;;;;5035926;28;20104;-77
2024/03/01 09:43:35;;;;;;;26.58;15.88;;;9.60;99.90;;;;;;5035189;28;20018;-76
2024/03/01 09:46:18;;;;;;;31.70;16.20;;;9.90;99.90;;;;;;5035103;28;20384;-76
2024/03/01 09:48:52;;;;;;;28.75;15.98;;;9.80;99.90;;;;;;5034489;28;20582;-76
2024/03/01 09:51:37;;;;;;;30.20;14.65;;;9.90;99.90;;;;;;5033964;28;20035;-77
2024/03/01 09:54:18;;;;;;;31.90;16.92;;;9.90;99.90;;;;;;5035522;28;20025;-76
2024/03/01 09:56:46;;;;;;;24.88;14.50;;;10.00;99.90;;;;;;5035438;28;20048;-77
2024/03/01 09:59:20;;;;;;;31.48;14.85;;;10.00;99.90;;;;;;5036002;28;20022;-77
2024/03/01 10:01:54;;;;;;;30.20;15.10;;;9.90;99.90;;;;;;5034437;28;20125;-76
2024/03/01 10:04:51;;;;;;;27.90;14.02;;;9.90;99.90;;;;;;5036000;28;20048;-77
2024/03/01 10:07:38;;;;;;;22.05;13.63;;;9.90;99.90;;;;;;5019218;28;20108;-76
2024/03/01 10:10:51;;;;;;;26.13;14.57;;;9.80;99.90;;;;;;5034747;28;20037;-76
2024/03/01 10:13:42;;;;;;;27.55;15.07;;;9.80;99.90;;;;;;5036366;28;20021;-77
2024/03/01 10:16:18;;;;;;;31.58;15.68;;;9.80;99.90;;;;;;5038679;28;20056;-78
2024/03/01 10:19:07;;;;;;;23.13;13.95;;;9.70;99.90;;;;;;5037706;28;20022;-76
2024/03/01 10:21:35;;;;;;;22.98;14.10;;;9.70;99.90;;;;;;5038024;28;20510;-77
2024/03/01 10:24:19;;;;;;;28.48;15.18;;;9.80;99.90;;;;;;5038164;28;20125;-76
2024/03/01 10:27:09;;;;;;;26.58;15.05;;;9.80;99.90;;;;;;5037226;28;20033;-77
2024/03/01 10:29:41;;;;;;;23.73;13.48;;;9.80;99.90;;;;;;5038899;28;20080;-77
2024/03/01 10:32:46;;;;;;;29.15;13.60;;;9.80;99.90;;;;;;5039599;28;20018;-76
2024/03/01 10:35:21;;;;;;;25.13;13.48;;;9.80;99.90;;;;;;5034750;28;20038;-76
2024/03/01 10:38:19;;;;;;;22.50;13.52;;;9.90;99.90;;;;;;5036655;28;20440;-78
2024/03/01 10:41:03;;;;;;;27.35;15.35;;;9.80;99.90;;;;;;5037923;28;20021;-76
2024/03/01 10:43:39;;;;;;;29.65;15.52;;;9.90;99.90;;;;;;5035699;28;20175;-76
2024/03/01 10:46:15;;;;;;;26.33;13.80;;;9.90;99.90;;;;;;5036377;28;20041;-76
2024/03/01 10:49:00;;;;;;;16.38;9.90;;;9.90;99.90;;;;;;5036722;28;20033;-77
2024/03/01 10:51:33;;;;;;;29.23;16.40;;;10.90;99.90;;;;;;5034612;28;20084;-77
2024/03/01 10:54:04;;;;;;;44.90;18.77;;;11.60;99.90;;;;;;5035932;28;20087;-79
2024/03/01 10:56:30;;;;;;;45.10;21.25;;;11.30;99.90;;;;;;5036521;28;20087;-77
2024/03/01 10:59:16;;;;;;;29.42;16.00;;;10.90;99.90;;;;;;5039562;28;20026;-77
2024/03/01 11:01:53;;;;;;;31.60;22.38;;;10.70;99.90;;;;;;5038599;28;20028;-78
2024/03/01 11:04:37;;;;;;;37.60;25.88;;;10.60;99.90;;;;;;5038661;28;20025;-78
2024/03/01 11:07:32;;;;;;;29.63;19.50;;;10.60;99.90;;;;;;5038556;28;20026;-78
2024/03/01 11:10:00;;;;;;;31.05;16.60;;;10.60;99.90;;;;;;5037540;28;20037;-78
2024/03/01 11:12:35;;;;;;;34.22;20.17;;;10.70;99.90;;;;;;5038007;28;20073;-81
2024/03/01 11:15:07;;;;;;;22.52;15.13;;;10.80;99.90;;;;;;5032750;28;20034;-79
2024/03/01 11:17:33;;;;;;;25.42;14.95;;;10.90;99.90;;;;;;5042081;28;20025;-79
2024/03/01 11:20:10;;;;;;;25.92;14.27;;;10.80;99.90;;;;;;5044190;28;20547;-77
2024/03/01 11:22:41;;;;;;;22.77;13.88;;;10.80;99.90;;;;;;5043388;28;20021;-77
2024/03/01 11:25:19;;;;;;;27.23;14.75;;;10.70;99.90;;;;;;5043421;28;20022;-80
2024/03/01 11:27:59;;;;;;;26.13;15.68;;;10.70;99.90;;;;;;5043696;28;20033;-78
2024/03/01 11:30:29;;;;;;;28.60;14.07;;;10.60;99.90;;;;;;5041986;28;20468;-79
2024/03/01 11:33:01;;;;;;;27.88;15.00;;;10.60;99.90;;;;;;5042804;28;20033;-80
2024/03/01 11:35:46;;;;;;;28.27;14.05;;;10.60;99.90;;;;;;5041057;28;20021;-79
2024/03/01 11:38:26;;;;;;;27.10;14.50;;;10.40;99.90;;;;;;5039802;28;20040;-79
2024/03/01 11:41:10;;;;;;;23.52;14.93;;;10.50;99.90;;;;;;5039205;28;20049;-76
2024/03/01 11:43:41;;;;;;;28.88;14.85;;;10.40;99.90;;;;;;5037959;28;20330;-76
2024/03/01 11:46:47;;;;;;;24.92;15.05;;;10.50;99.90;;;;;;5038612;28;20091;-78
2024/03/01 11:49:32;;;;;;;25.40;15.18;;;10.50;99.90;;;;;;5040318;28;20104;-77
2024/03/01 11:51:57;;;;;;;23.80;13.65;;;10.50;99.90;;;;;;5038099;28;20029;-78
2024/03/01 11:54:56;;;;;;;26.83;15.80;;;10.60;99.90;;;;;;5039969;28;20396;-79
2024/03/01 11:57:50;;;;;;;30.88;14.98;;;10.60;99.90;;;;;;5039675;28;20029;-79
2024/03/01 12:00:22;;;;;;;22.00;13.73;;;10.70;99.90;;;;;;5041004;28;20068;-81
2024/03/01 12:02:57;;;;;;;23.00;13.40;;;10.70;99.90;;;;;;5041139;28;20105;-79
2024/03/01 12:05:40;;;;;;;27.13;14.33;;;10.60;99.90;;;;;;5022588;28;20049;-79
2024/03/01 12:08:11;;;;;;;32.42;13.65;;;10.70;99.90;;;;;;5019942;28;20022;-79
2024/03/01 12:10:49;;;;;;;24.65;14.95;;;10.70;99.90;;;;;;5020120;28;20113;-80
2024/03/01 12:13:16;;;;;;;31.05;16.02;;;10.80;99.90;;;;;;5019780;28;20030;-80
2024/03/01 12:16:04;;;;;;;25.55;13.65;;;10.90;99.90;;;;;;5021873;28;20024;-81
2024/03/01 12:18:40;;;;;;;25.23;14.15;;;10.90;99.90;;;;;;5019172;28;20370;-81
2024/03/01 12:21:11;;;;;;;30.10;14.88;;;10.80;99.90;;;;;;5018455;28;20498;-80
2024/03/01 12:24:02;;;;;;;22.63;13.73;;;10.90;99.90;;;;;;5018726;28;20026;-79
2024/03/01 12:26:39;;;;;;;27.52;14.07;;;10.80;99.90;;;;;;5019674;28;20473;-80
2024/03/01 12:29:30;;;;;;;22.40;14.52;;;10.60;99.90;;;;;;5020719;28;20037;-79
2024/03/01 12:32:22;;;;;;;27.88;14.50;;;10.60;99.90;;;;;;4990412;28;20034;-77
2024/03/01 12:35:07;;;;;;;24.50;14.88;;;10.70;99.90;;;;;;5058759;28;20025;-78
2024/03/01 12:38:06;;;;;;;30.85;16.75;;;10.50;99.90;;;;;;5047857;28;20041;-77
2024/03/01 12:40:41;;;;;;;30.23;16.52;;;10.40;99.90;;;;;;5031511;28;20047;-78
2024/03/01 12:43:34;;;;;;;27.50;16.98;;;10.50;99.90;;;;;;5039009;28;20076;-78
2024/03/01 12:46:14;;;;;;;25.92;14.18;;;10.50;99.90;;;;;;5036174;28;20025;-78
2024/03/01 12:49:07;;;;;;;27.02;15.25;;;10.50;99.90;;;;;;5023641;28;20498;-76
2024/03/01 12:51:48;;;;;;;28.98;16.10;;;11.00;99.90;;;;;;5026427;28;20553;-77